Tokoname, Japan
Current Conditions -  °F | °C
As of 5:00 PM on Monday 20 Oct 2014 (Local Time) from RJGG Reporting Station
Rain Showers Rain Showers  
Wind Chill: 66°   Ceiling: 2000
Heat Index: 66°   Visibility: 1.4mi
Dew Point: 64°   Wind: 8mph
Humidity: 94%   Direction: 90°E
Pressure: 30.12"   Gusts: NA
Location:  34.88°N, 136.85°E
Report Text: RJGG 200800Z 09007KT 2300 SHRA BR FEW003 SCT005 BKN020 19/18 Q1020 TEMPO 4000 -SHRA BR
Loading
Personal Weather Stations






























Interactive Weather Map
Tropical Storm Tracking
New forecast layout! Learn more

10-Day Weather Forecast

Advertisements
Track Severe Weather on mobile